Bear Creek, NC

1:55 AM EDT on September 24, 2014 (GMT -0400)
Williams | Change Station
CLOSE
Current Station
Airport
Location: Chapel Hill,
Elevation: 512 ft
Nearby Weather Stations

Elev 512 ft 35.93 °N, 79.06 °W | Updated 59 minutes ago

Mostly Cloudy
Mostly Cloudy
55 °F
Feels Like 55 °F
N
8
Wind Variable Wind from NNE

Today
High -- | Low -- °F
--% Chance of Precip.
Yesterday
High -- | Low -- °F
Precip. -- in
7:07 AM 7:11 PM
Waning Crescent, 0% visible
Pressure 30.30 in
Visibility 10.0 miles
Clouds Few 9500 ft
Dew Point 52 °F
Humidity 89%
Rainfall 0.00 in
Snow Depth Not available.
UV 0 out of 12
Pollen 5.40 out of 12
Ozone Good
PM2.5 Good
Flu Activity Not available.
METAR KIGX 240456Z AUTO 03007KT 10SM FEW095 13/11 A3031 RMK AO2 RAE01 SLP259 P0000 T01280111 401780128 TSNO

More Conditions Fewer Conditions

Pressure 30.30 in
Visibility 10.0 miles
Clouds Few 9500 ft
Dew Point 52 °F
Humidity 89%
Rainfall 0.00 in
Snow Depth Not available.
UV 0 out of 12
Pollen 5.40 out of 12
Ozone Good
PM2.5 Good
Flu Activity Not available.
METAR KIGX 240456Z AUTO 03007KT 10SM FEW095 13/11 A3031 RMK AO2 RAE01 SLP259 P0000 T01280111 401780128 TSNO

More Conditions Fewer Conditions

10-Day Weather Forecast

Almanac

Astronomy

Sep. 24, 2014 Rise Set
Actual Time 7:07 AM EDT 7:11 PM EDT
Civil Twilight 6:42 AM EDT 7:37 PM EDT
Nautical Twilight 6:12 AM EDT 8:07 PM EDT
Astronomical Twilight 5:42 AM EDT 8:37 PM EDT
Moon 7:25 AM EDT 7:24 PM EDT
Length of Visible Light 12h 55m
Length of Day
12h 04m
Tomorrow will be 2m 13s shorter.
Waning Crescent, 0% of the Moon is Illuminated
Today
Waning Crescent
Sep 24
New
Oct 1
First Quarter
Oct 8
Full
Oct 15
Last Quarter

Today's Extremes

State Highs State Lows

Community

WunderPhotos

Upload Photos

1,755,891 photos uploaded!

WunderBlogs® & News

Nearby

Air Quality

  Air Quality AQ Index Pollutant
Yesterday Good
PM2.5
Yesterday Good
OZONE
Current Good
PM2.5
Current Good
OZONE
Wednesday Good
PM2.5
Wednesday Good
OZONE
Thursday Good
PM2.5
Thursday Good
OZONE
Friday Good
PM2.5
Friday Good
OZONE

Snow Depth

Station Depth Elevation
No new snow has been reported.

Earthquake Activity

City Distance Mag. Time & Date
No recent earthquake activity has been reported nearby.
Minimum magnitude displayed is 2.5.

Coastal Water Temperatures

Place Temperature
No Stations Reporting

Nearby Weather Stations